KLKU

Details ICAO KLKU
Name LOUISA CO FREEMAN FLD
Region United States
Timezone America/New_York (UTC-5.0)
Plans Departing 3
Arriving 1
Stats Elevation 493 ft / 150 m (AMSL)
Location 38.009825° -77.970128°
Runways 1
Magnetic Variation 10.091° W
Sunrise 2017-12-15 12:22:17 UTC / 2017-12-15 07:22:17 Local
Sunset 2017-12-15 21:54:47 UTC / 2017-12-15 16:54:47 Local
Advertisement - Login to hide

Runways

ID Width Length Bearing (true) Bearing (mag) Surface Threshold Offset Overrun Length
09 100 ft / 30 m 4,292 ft / 1,308 m 82.29° 92.38° Asphalt 0 ft / 0 m 0 ft / 0 m
27 100 ft / 30 m 4,292 ft / 1,308 m 262.29° 272.38° Asphalt 0 ft / 0 m 0 ft / 0 m

Map

Weather


0- 5 10 15 20 25 30 35+ Temperature / ° C

Clouds and Precipitation
Forecast for 2017-12-16 06:00 UTC. Updated an hour ago

Ground ~20,000 ft ~40,000 ft Winds

METAR

KLKU 160355Z AUTO 22003KT 10SM CLR M08/M09 A3007 RMK AO2 T10781091

TAF

Not found

Frequencies

Recorded 119.47 MHz AWOS 3
Approach 132.85 MHz POTOMAC APP/DEP
Unicom 122.72 MHz CTAF/UNICOM
Warning: Do not use this data for real-world aviation or navigation. No guarantee of current accuracy is given.